createdAt,value
2018-04-11T00:01:41.180Z,8.00
2018-04-11T00:04:08.641Z,8.10
2018-04-11T00:06:36.323Z,8.00
2018-04-11T00:09:03.771Z,8.00
2018-04-11T00:11:31.225Z,8.00
2018-04-11T00:13:58.686Z,8.00
2018-04-11T00:16:26.144Z,8.10
2018-04-11T00:18:53.599Z,8.00
2018-04-11T00:21:21.908Z,8.10
2018-04-11T00:23:50.124Z,8.00
2018-04-11T00:26:17.613Z,8.00
2018-04-11T00:28:45.072Z,8.00
2018-04-11T00:31:13.435Z,8.10
2018-04-11T00:33:40.892Z,8.10
2018-04-11T00:36:08.341Z,8.10
2018-04-11T00:38:35.795Z,8.10
2018-04-11T00:41:03.258Z,8.10
2018-04-11T00:43:31.484Z,8.10
2018-04-11T00:45:58.957Z,8.10
2018-04-11T00:48:26.801Z,8.10
2018-04-11T00:50:55.012Z,8.10
2018-04-11T00:53:26.126Z,8.10
2018-04-11T00:55:53.816Z,8.10
2018-04-11T00:58:21.892Z,8.10
2018-04-11T01:00:49.376Z,8.10
2018-04-11T01:03:16.832Z,8.10
2018-04-11T01:05:44.291Z,8.20
2018-04-11T01:08:11.760Z,8.30
2018-04-11T01:10:39.216Z,8.30
2018-04-11T01:13:07.440Z,8.30
2018-04-11T01:15:35.439Z,8.30
2018-04-11T01:20:37.520Z,8.20
2018-04-11T01:23:04.984Z,8.20
2018-04-11T01:25:32.458Z,8.20
2018-04-11T01:27:59.967Z,8.20
2018-04-11T01:30:28.708Z,8.20
2018-04-11T01:32:56.942Z,8.20
2018-04-11T01:35:24.395Z,8.20
2018-04-11T01:37:51.858Z,8.20
2018-04-11T01:40:19.908Z,8.10
2018-04-11T01:42:47.381Z,8.10
2018-04-11T01:45:15.097Z,8.10
2018-04-11T01:47:43.321Z,8.10
2018-04-11T01:50:10.776Z,8.10
2018-04-11T01:52:38.240Z,8.20
2018-04-11T01:55:05.707Z,8.10
2018-04-11T01:57:33.721Z,8.10
2018-04-11T02:00:01.647Z,8.10
2018-04-11T02:02:29.104Z,8.10
2018-04-11T02:04:56.567Z,8.10
2018-04-11T02:07:24.024Z,8.10
2018-04-11T02:09:51.489Z,8.10
2018-04-11T02:12:18.946Z,8.10
2018-04-11T02:14:48.862Z,8.10
2018-04-11T02:17:16.875Z,8.10
2018-04-11T02:19:44.738Z,8.10
2018-04-11T02:22:12.185Z,8.10
2018-04-11T02:24:39.661Z,8.10
2018-04-11T02:27:07.123Z,8.00
2018-04-11T02:29:34.580Z,8.00
2018-04-11T02:32:02.117Z,8.00
2018-04-11T02:34:30.080Z,8.00
2018-04-11T02:36:59.238Z,8.00
2018-04-11T02:39:26.711Z,8.00
2018-04-11T02:41:54.176Z,8.00
2018-04-11T02:44:23.139Z,7.90
2018-04-11T02:46:51.160Z,7.90
2018-04-11T02:49:18.613Z,7.90
2018-04-11T02:51:46.063Z,7.80
2018-04-11T02:54:13.521Z,7.80
2018-04-11T02:56:40.971Z,7.80
2018-04-11T02:59:08.426Z,7.80
2018-04-11T03:01:37.225Z,7.80
2018-04-11T03:04:04.690Z,7.80
2018-04-11T03:06:32.733Z,7.80
2018-04-11T03:09:00.969Z,7.80
2018-04-11T03:11:28.424Z,7.70
2018-04-11T03:13:55.888Z,7.80
2018-04-11T03:16:23.609Z,7.80
2018-04-11T03:18:51.056Z,7.80
2018-04-11T03:21:21.105Z,7.80
2018-04-11T03:23:48.582Z,7.80
2018-04-11T03:26:16.041Z,7.80
2018-04-11T03:28:44.040Z,7.80
2018-04-11T03:31:12.304Z,7.80
2018-04-11T03:33:39.764Z,7.80
2018-04-11T03:36:07.223Z,7.80
2018-04-11T03:38:35.448Z,7.80
2018-04-11T03:41:03.448Z,7.70
2018-04-11T03:43:30.911Z,7.80
2018-04-11T03:45:58.365Z,7.80
2018-04-11T03:48:25.857Z,7.80
2018-04-11T03:50:54.081Z,7.90
2018-04-11T03:53:21.538Z,7.90
2018-04-11T03:55:49.416Z,7.90
2018-04-11T03:58:16.891Z,7.90
2018-04-11T04:00:44.885Z,7.90
2018-04-11T04:03:13.484Z,7.90
2018-04-11T04:05:40.928Z,7.80
2018-04-11T04:08:08.384Z,7.90
2018-04-11T04:10:35.848Z,7.90
2018-04-11T04:13:03.341Z,7.80
2018-04-11T04:15:42.632Z,7.80
2018-04-11T04:18:21.828Z,7.80
2018-04-11T04:20:49.275Z,7.90
2018-04-11T04:23:16.741Z,7.80
2018-04-11T04:25:44.200Z,7.80
2018-04-11T04:28:11.742Z,7.70
2018-04-11T04:30:39.627Z,7.70
2018-04-11T04:33:07.132Z,7.70
2018-04-11T04:35:34.546Z,7.70
2018-04-11T04:38:02.011Z,7.60
2018-04-11T04:40:30.259Z,7.60
2018-04-11T04:42:57.714Z,7.60
2018-04-11T04:45:25.187Z,7.60
2018-04-11T04:47:53.603Z,7.60
2018-04-11T04:50:25.551Z,7.50
2018-04-11T04:52:54.206Z,7.50
2018-04-11T04:55:21.708Z,7.50
2018-04-11T04:57:49.175Z,7.50
2018-04-11T05:00:16.635Z,7.50
2018-04-11T05:02:44.125Z,7.50
2018-04-11T05:05:11.584Z,7.50
2018-04-11T05:07:39.068Z,7.50
2018-04-11T05:10:06.880Z,7.50
2018-04-11T05:12:34.336Z,7.40
2018-04-11T05:15:02.447Z,7.40
2018-04-11T05:17:29.923Z,7.40
2018-04-11T05:19:58.139Z,7.40
2018-04-11T05:22:25.591Z,7.40
2018-04-11T05:24:53.051Z,7.40
2018-04-11T05:27:20.540Z,7.40
2018-04-11T05:29:49.004Z,7.40
2018-04-11T05:32:16.473Z,7.40
2018-04-11T05:34:43.932Z,7.40
2018-04-11T05:37:11.390Z,7.40
2018-04-11T05:39:38.840Z,7.50
2018-04-11T05:42:06.853Z,7.50
2018-04-11T05:44:35.079Z,7.50
2018-04-11T05:47:02.532Z,7.40
2018-04-11T05:49:30.263Z,7.40
2018-04-11T05:52:00.300Z,7.40
2018-04-11T05:54:27.758Z,7.40
2018-04-11T05:56:55.224Z,7.40
2018-04-11T05:59:22.693Z,7.50
2018-04-11T06:01:50.687Z,7.50
2018-04-11T06:04:18.165Z,7.50
2018-04-11T06:06:46.384Z,7.60
2018-04-11T06:09:13.844Z,7.50
2018-04-11T06:11:41.329Z,7.60
2018-04-11T06:14:09.491Z,7.60
2018-04-11T06:16:36.954Z,7.60
2018-04-11T06:19:04.415Z,7.60
2018-04-11T06:21:31.879Z,7.60
2018-04-11T06:23:59.327Z,7.60
2018-04-11T06:26:27.387Z,7.70
2018-04-11T06:28:54.848Z,7.70
2018-04-11T06:31:23.161Z,7.80
2018-04-11T06:33:51.853Z,7.80
2018-04-11T06:36:19.702Z,7.80
2018-04-11T06:38:47.927Z,7.80
2018-04-11T06:41:15.376Z,7.80
2018-04-11T06:43:43.364Z,7.80
2018-04-11T06:46:10.877Z,7.80
2018-04-11T06:48:38.297Z,7.80
2018-04-11T06:51:05.784Z,7.80
2018-04-11T06:53:34.009Z,7.80
2018-04-11T06:56:01.473Z,7.80
2018-04-11T06:58:28.924Z,7.80
2018-04-11T07:00:56.394Z,7.80
2018-04-11T07:03:23.845Z,7.70
2018-04-11T07:05:53.735Z,7.80
2018-04-11T07:08:22.208Z,7.90
2018-04-11T07:10:49.668Z,8.00
2018-04-11T07:13:17.135Z,8.10
2018-04-11T07:15:44.591Z,8.20
2018-04-11T07:18:12.053Z,8.40
2018-04-11T07:20:39.503Z,8.40
2018-04-11T07:23:06.961Z,8.60
2018-04-11T07:25:34.421Z,8.70
2018-04-11T07:28:01.876Z,8.90
2018-04-11T07:30:29.336Z,8.90
2018-04-11T07:32:56.794Z,9.00
2018-04-11T07:35:24.730Z,9.00
2018-04-11T07:37:53.107Z,9.20
2018-04-11T07:40:21.629Z,9.40
2018-04-11T07:42:49.938Z,9.60
2018-04-11T07:45:18.164Z,9.70
2018-04-11T07:47:46.068Z,9.70
2018-04-11T07:50:13.524Z,9.80
2018-04-11T07:52:41.449Z,9.90
2018-04-11T07:55:08.910Z,10.10
2018-04-11T07:57:36.633Z,10.00
2018-04-11T08:00:04.856Z,10.10
2018-04-11T08:02:32.317Z,10.10
2018-04-11T08:04:59.780Z,10.50
2018-04-11T08:07:27.815Z,10.80
2018-04-11T08:09:55.822Z,11.00
2018-04-11T08:12:23.350Z,10.90
2018-04-11T08:14:50.814Z,10.70
2018-04-11T08:17:18.265Z,10.80
2018-04-11T08:19:46.452Z,10.90
2018-04-11T08:22:13.904Z,11.20
2018-04-11T08:24:41.373Z,11.40
2018-04-11T08:27:09.285Z,11.40
2018-04-11T08:29:37.508Z,11.40
2018-04-11T08:32:05.310Z,11.40
2018-04-11T08:34:33.329Z,11.50
2018-04-11T08:37:00.795Z,11.40
2018-04-11T08:39:28.264Z,11.30
2018-04-11T08:41:55.742Z,11.00
2018-04-11T08:44:23.205Z,10.70
2018-04-11T08:46:50.656Z,10.80
2018-04-11T08:49:18.900Z,10.90
2018-04-11T08:51:46.373Z,11.00
2018-04-11T08:54:13.847Z,11.20
2018-04-11T08:56:41.305Z,11.40
2018-04-11T08:59:09.606Z,11.70
2018-04-11T09:01:38.283Z,12.00
2018-04-11T09:04:06.521Z,12.30
2018-04-11T09:06:38.879Z,12.30
2018-04-11T09:09:07.027Z,12.80
2018-04-11T09:11:34.498Z,13.40
2018-04-11T09:14:02.360Z,14.10
2018-04-11T09:16:29.822Z,14.60
2018-04-11T09:18:57.276Z,15.30
2018-04-11T09:21:24.732Z,16.20
2018-04-11T09:23:52.194Z,16.90
2018-04-11T09:26:19.655Z,17.50
2018-04-11T09:28:48.628Z,18.30
2018-04-11T09:31:17.740Z,18.50
2018-04-11T09:33:45.205Z,18.60
2018-04-11T09:36:12.675Z,17.70
2018-04-11T09:38:41.300Z,17.80
2018-04-11T09:41:09.513Z,18.60
2018-04-11T09:43:36.980Z,18.60
2018-04-11T09:46:04.435Z,18.90
2018-04-11T09:48:31.884Z,19.70
2018-04-11T09:50:59.343Z,20.50
2018-04-11T09:53:26.799Z,21.30
2018-04-11T09:55:54.251Z,21.60
2018-04-11T09:58:22.419Z,22.00
2018-04-11T10:00:53.813Z,21.80
2018-04-11T10:03:23.089Z,22.10
2018-04-11T10:05:51.508Z,22.40
2018-04-11T10:08:20.569Z,22.60
2018-04-11T10:10:50.613Z,22.60
2018-04-11T10:13:18.054Z,22.20
2018-04-11T10:15:45.778Z,22.10
2018-04-11T10:18:13.430Z,22.10
2018-04-11T10:20:41.411Z,21.90
2018-04-11T10:23:08.881Z,22.00
2018-04-11T10:25:36.328Z,22.50
2018-04-11T10:28:03.780Z,22.70
2018-04-11T10:30:31.966Z,22.80
2018-04-11T10:32:59.495Z,23.50
2018-04-11T10:35:26.970Z,22.90
2018-04-11T10:37:54.995Z,22.20
2018-04-11T10:40:22.753Z,22.00
2018-04-11T10:42:50.223Z,21.70
2018-04-11T10:45:18.464Z,22.30
2018-04-11T10:47:46.484Z,22.30
2018-04-11T10:50:13.948Z,22.10
2018-04-11T10:52:41.420Z,22.00
2018-04-11T10:55:08.874Z,22.50
2018-04-11T10:57:36.876Z,22.10
2018-04-11T11:00:04.348Z,22.70
2018-04-11T11:02:32.334Z,23.00
2018-04-11T11:05:00.625Z,23.50
2018-04-11T11:07:29.200Z,22.80
2018-04-11T11:09:57.673Z,22.00
2018-04-11T11:12:25.223Z,21.90
2018-04-11T11:14:53.772Z,21.80
2018-04-11T11:17:21.410Z,22.30
2018-04-11T11:20:00.827Z,22.80
2018-04-11T11:22:29.056Z,22.90
2018-04-11T11:24:56.523Z,22.90
2018-04-11T11:27:24.040Z,22.20
2018-04-11T11:29:51.518Z,21.60
2018-04-11T11:32:19.584Z,22.30
2018-04-11T11:34:47.627Z,22.50
2018-04-11T11:37:16.048Z,22.30
2018-04-11T11:39:44.376Z,22.20
2018-04-11T11:42:12.780Z,22.20
2018-04-11T11:44:40.750Z,22.20
2018-04-11T11:47:08.356Z,22.00
2018-04-11T11:49:35.800Z,21.60
2018-04-11T11:52:03.317Z,21.40
2018-04-11T11:54:30.834Z,21.70
2018-04-11T11:56:58.302Z,22.30
2018-04-11T11:59:26.568Z,22.40
2018-04-11T12:01:54.787Z,22.20
2018-04-11T12:04:22.245Z,22.20
2018-04-11T12:06:49.733Z,22.50
2018-04-11T12:09:17.315Z,22.20
2018-04-11T12:11:45.510Z,22.30
2018-04-11T12:14:13.761Z,22.50
2018-04-11T12:16:41.203Z,22.40
2018-04-11T12:19:09.308Z,21.80
2018-04-11T12:21:37.524Z,20.80
2018-04-11T12:24:05.809Z,20.80
2018-04-11T12:26:33.261Z,20.60
2018-04-11T12:29:00.716Z,20.50
2018-04-11T12:31:29.304Z,20.80
2018-04-11T12:33:56.769Z,20.80
2018-04-11T12:36:24.489Z,20.60
2018-04-11T12:38:51.935Z,20.60
2018-04-11T12:41:21.160Z,21.10
2018-04-11T12:43:48.986Z,21.10
2018-04-11T12:46:17.205Z,21.90
2018-04-11T12:48:45.628Z,21.80
2018-04-11T12:51:13.094Z,22.10
2018-04-11T12:53:40.567Z,22.60
2018-04-11T12:56:08.792Z,22.80
2018-04-11T12:58:36.248Z,22.80
2018-04-11T13:01:03.706Z,23.10
2018-04-11T13:03:31.169Z,23.40
2018-04-11T13:05:58.620Z,23.40
2018-04-11T13:08:26.071Z,23.40
2018-04-11T13:10:53.917Z,23.50
2018-04-11T13:13:21.809Z,23.70
2018-04-11T13:15:49.264Z,23.30
2018-04-11T13:18:16.753Z,23.20
2018-04-11T13:20:44.172Z,23.10
2018-04-11T13:23:12.965Z,23.20
2018-04-11T13:25:40.456Z,23.20
2018-04-11T13:28:07.871Z,23.50
2018-04-11T13:30:35.327Z,23.70
2018-04-11T13:33:03.540Z,23.10
2018-04-11T13:35:31.015Z,23.10
2018-04-11T13:37:59.783Z,23.50
2018-04-11T13:40:27.235Z,23.50
2018-04-11T13:42:55.229Z,23.70
2018-04-11T13:45:23.475Z,23.80
2018-04-11T13:47:50.929Z,23.80
2018-04-11T13:50:19.007Z,23.90
2018-04-11T13:52:46.479Z,24.10
2018-04-11T13:55:14.695Z,23.60
2018-04-11T13:57:42.204Z,23.60
2018-04-11T14:00:09.672Z,23.90
2018-04-11T14:02:37.905Z,24.30
2018-04-11T14:05:05.376Z,24.30
2018-04-11T14:07:32.845Z,25.00
2018-04-11T14:10:00.295Z,25.00
2018-04-11T14:15:01.675Z,24.80
2018-04-11T14:17:29.351Z,25.20
2018-04-11T14:19:57.579Z,24.60
2018-04-11T14:22:25.039Z,24.60
2018-04-11T14:24:53.268Z,25.60
2018-04-11T14:27:21.309Z,25.60
2018-04-11T14:29:48.817Z,26.20
2018-04-11T14:32:16.823Z,26.80
2018-04-11T14:34:44.281Z,27.00
2018-04-11T14:37:11.733Z,27.70
2018-04-11T14:39:39.185Z,27.80
2018-04-11T14:42:06.656Z,27.40
2018-04-11T14:44:34.585Z,27.40
2018-04-11T14:47:02.056Z,27.80
2018-04-11T14:49:29.952Z,27.90
2018-04-11T14:51:57.401Z,27.50
2018-04-11T14:54:24.866Z,26.10
2018-04-11T14:56:52.316Z,25.60
2018-04-11T14:59:19.771Z,25.50
2018-04-11T15:01:47.228Z,25.90
2018-04-11T15:04:14.688Z,26.30
2018-04-11T15:06:42.201Z,26.70
2018-04-11T15:09:09.647Z,26.60
2018-04-11T15:11:37.455Z,26.70
2018-04-11T15:14:04.907Z,26.60
2018-04-11T15:16:32.352Z,26.50
2018-04-11T15:18:59.832Z,26.30
2018-04-11T15:21:27.396Z,26.00
2018-04-11T15:23:54.875Z,25.60
2018-04-11T15:26:23.135Z,25.30
2018-04-11T15:28:53.208Z,25.20
2018-04-11T15:31:21.089Z,25.60
2018-04-11T15:33:48.971Z,25.60
2018-04-11T15:36:16.432Z,25.50
2018-04-11T15:38:43.992Z,24.90
2018-04-11T15:41:11.548Z,24.90
2018-04-11T15:43:38.999Z,25.00
2018-04-11T15:49:05.007Z,25.30
2018-04-11T15:51:32.455Z,25.40
2018-04-11T15:53:59.904Z,25.30
2018-04-11T15:56:28.136Z,24.70
2018-04-11T15:58:57.407Z,24.70
2018-04-11T16:01:24.965Z,24.40
2018-04-11T16:03:52.467Z,24.30
2018-04-11T16:06:21.972Z,24.00
2018-04-11T16:08:49.507Z,24.00
2018-04-11T16:11:16.959Z,23.80
2018-04-11T16:13:44.445Z,23.70
2018-04-11T16:16:11.896Z,23.70
2018-04-11T16:18:39.343Z,23.80
2018-04-11T16:21:06.809Z,23.50
2018-04-11T16:23:34.251Z,23.70
2018-04-11T16:26:01.740Z,24.10
2018-04-11T16:28:29.956Z,23.90
2018-04-11T16:30:57.446Z,23.90
2018-04-11T16:33:24.864Z,23.70
2018-04-11T16:35:52.348Z,23.50
2018-04-11T16:38:19.810Z,23.40
2018-04-11T16:40:47.808Z,23.20
2018-04-11T16:43:16.049Z,22.80
2018-04-11T16:45:43.507Z,22.80
2018-04-11T16:48:10.958Z,22.40
2018-04-11T16:50:38.439Z,21.90
2018-04-11T16:53:05.994Z,21.80
2018-04-11T16:55:33.544Z,21.60
2018-04-11T16:58:01.004Z,21.40
2018-04-11T17:00:28.460Z,21.20
2018-04-11T17:02:55.920Z,21.30
2018-04-11T17:05:23.404Z,21.20
2018-04-11T17:07:51.379Z,21.20
2018-04-11T17:10:19.618Z,21.00
2018-04-11T17:12:47.078Z,21.00
2018-04-11T17:15:14.675Z,20.80
2018-04-11T17:17:42.887Z,20.20
2018-04-11T17:20:10.951Z,20.20
2018-04-11T17:22:50.445Z,20.00
2018-04-11T17:28:33.456Z,18.40
2018-04-11T17:31:12.973Z,17.70
2018-04-11T17:33:40.434Z,17.20
2018-04-11T17:36:07.912Z,16.80
2018-04-11T17:38:38.121Z,16.50
2018-04-11T17:41:05.588Z,16.20
2018-04-11T17:43:33.121Z,16.00
2018-04-11T17:46:00.580Z,15.80
2018-04-11T17:48:28.308Z,15.70
2018-04-11T17:50:56.864Z,15.40
2018-04-11T17:53:24.336Z,15.40
2018-04-11T17:55:51.793Z,15.30
2018-04-11T17:58:19.261Z,15.10
2018-04-11T18:00:47.505Z,14.80
2018-04-11T18:03:15.480Z,14.80
2018-04-11T18:05:43.328Z,14.70
2018-04-11T18:08:11.769Z,14.60
2018-04-11T18:10:39.216Z,14.40
2018-04-11T18:13:06.904Z,14.30
2018-04-11T18:15:34.403Z,14.20
2018-04-11T18:18:03.838Z,14.10
2018-04-11T18:20:32.376Z,14.00
2018-04-11T18:22:59.836Z,14.00
2018-04-11T18:25:27.406Z,14.00
2018-04-11T18:27:54.847Z,13.90
2018-04-11T18:30:22.303Z,13.80
2018-04-11T18:32:49.772Z,13.70
2018-04-11T18:35:17.231Z,13.60
2018-04-11T18:37:44.685Z,13.40
2018-04-11T18:40:12.152Z,13.30
2018-04-11T18:42:40.478Z,13.20
2018-04-11T18:45:08.760Z,13.00
2018-04-11T18:47:36.501Z,13.00
2018-04-11T18:50:04.736Z,12.70
2018-04-11T18:52:32.692Z,12.80
2018-04-11T18:55:00.266Z,12.70
2018-04-11T18:57:27.765Z,12.60
2018-04-11T18:59:55.289Z,12.60
2018-04-11T19:02:22.740Z,12.70
2018-04-11T19:04:50.297Z,12.70
2018-04-11T19:07:17.861Z,12.70
2018-04-11T19:09:45.442Z,12.60
2018-04-11T19:12:13.719Z,12.40
2018-04-11T19:14:42.075Z,12.40
2018-04-11T19:17:09.530Z,12.30
2018-04-11T19:19:36.981Z,12.30
2018-04-11T19:22:04.442Z,12.30
2018-04-11T19:24:31.999Z,12.20
2018-04-11T19:26:59.477Z,12.10
2018-04-11T19:29:27.698Z,12.00
2018-04-11T19:31:55.555Z,12.00
2018-04-11T19:34:23.068Z,12.00
2018-04-11T19:36:50.636Z,11.90
2018-04-11T19:39:18.885Z,11.80
2018-04-11T19:41:46.470Z,11.80
2018-04-11T19:44:13.903Z,11.80
2018-04-11T19:46:41.375Z,11.80
2018-04-11T19:49:08.828Z,11.70
2018-04-11T19:51:36.276Z,11.60
2018-04-11T19:54:03.748Z,11.70
2018-04-11T19:56:31.224Z,11.70
2018-04-11T19:58:59.448Z,11.60
2018-04-11T20:01:28.519Z,11.60
2018-04-11T20:03:55.994Z,11.50
2018-04-11T20:06:23.462Z,11.50
2018-04-11T20:08:51.757Z,11.40
2018-04-11T20:11:19.204Z,11.30
2018-04-11T20:13:46.660Z,11.20
2018-04-11T20:16:14.708Z,11.20
2018-04-11T20:18:42.155Z,11.10
2018-04-11T20:21:09.607Z,11.00
2018-04-11T20:23:37.379Z,11.20
2018-04-11T20:26:04.834Z,11.20
2018-04-11T20:28:32.286Z,11.30
2018-04-11T20:30:59.743Z,11.40
2018-04-11T20:33:27.188Z,11.30
2018-04-11T20:35:54.867Z,11.30
2018-04-11T20:38:22.828Z,11.20
2018-04-11T20:40:51.565Z,11.20
2018-04-11T20:43:19.788Z,11.00
2018-04-11T20:45:47.247Z,11.00
2018-04-11T20:48:14.782Z,10.90
2018-04-11T20:50:42.191Z,10.90
2018-04-11T20:53:09.755Z,10.80
2018-04-11T20:55:37.202Z,10.70
2018-04-11T20:58:04.670Z,10.70
2018-04-11T21:00:32.138Z,10.60
2018-04-11T21:02:59.583Z,10.60
2018-04-11T21:05:27.266Z,10.60
2018-04-11T21:07:54.803Z,10.70
2018-04-11T21:10:22.248Z,10.80
2018-04-11T21:12:49.719Z,10.80
2018-04-11T21:15:17.181Z,10.90
2018-04-11T21:17:44.632Z,10.80
2018-04-11T21:20:12.191Z,10.80
2018-04-11T21:22:39.675Z,10.70
2018-04-11T21:25:08.613Z,10.90
2018-04-11T21:27:36.095Z,10.80
2018-04-11T21:30:03.837Z,11.00
2018-04-11T21:32:31.848Z,11.10
2018-04-11T21:34:59.310Z,11.10
2018-04-11T21:37:26.752Z,11.00
2018-04-11T21:39:54.203Z,11.10
2018-04-11T21:42:21.650Z,11.10
2018-04-11T21:44:49.655Z,11.20
2018-04-11T21:47:18.210Z,11.30
2018-04-11T21:49:45.663Z,11.30
2018-04-11T21:52:13.472Z,11.30
2018-04-11T21:54:44.157Z,11.30
2018-04-11T21:57:12.012Z,11.30
2018-04-11T21:59:39.456Z,11.20
2018-04-11T22:02:06.928Z,11.30
2018-04-11T22:04:34.379Z,11.20
2018-04-11T22:07:01.832Z,11.20
2018-04-11T22:09:29.280Z,11.20
2018-04-11T22:11:56.737Z,11.10
2018-04-11T22:14:24.193Z,11.10
2018-04-11T22:16:51.649Z,11.10
2018-04-11T22:19:20.482Z,11.00
2018-04-11T22:21:47.944Z,11.00
2018-04-11T22:24:15.834Z,11.00
2018-04-11T22:26:44.049Z,10.90
2018-04-11T22:29:12.316Z,10.90
2018-04-11T22:31:40.152Z,10.90
2018-04-11T22:34:08.786Z,10.80
2018-04-11T22:36:36.641Z,10.80
2018-04-11T22:39:04.101Z,10.70
2018-04-11T22:41:32.416Z,10.80
2018-04-11T22:43:59.859Z,10.80
2018-04-11T22:46:27.727Z,10.80
2018-04-11T22:48:55.201Z,10.70
2018-04-11T22:51:22.643Z,10.70
2018-04-11T22:53:50.797Z,10.60
2018-04-11T22:56:18.258Z,10.50
2018-04-11T22:58:45.788Z,10.50
2018-04-11T23:01:13.237Z,10.50
2018-04-11T23:03:40.681Z,10.50
2018-04-11T23:06:09.201Z,10.40
2018-04-11T23:08:36.653Z,10.40
2018-04-11T23:11:04.105Z,10.40
2018-04-11T23:13:31.555Z,10.30
2018-04-11T23:15:59.581Z,10.30
2018-04-11T23:18:27.042Z,10.30
2018-04-11T23:20:54.523Z,10.20
2018-04-11T23:23:21.982Z,10.30
2018-04-11T23:25:49.448Z,10.20
2018-04-11T23:28:16.914Z,10.30
2018-04-11T23:30:44.363Z,10.30
2018-04-11T23:33:11.820Z,10.30
2018-04-11T23:35:39.688Z,10.40
2018-04-11T23:38:07.133Z,10.30
2018-04-11T23:40:34.584Z,10.20
2018-04-11T23:43:02.676Z,10.10
2018-04-11T23:45:30.132Z,10.00
2018-04-11T23:47:57.584Z,10.00
2018-04-11T23:50:25.464Z,9.90
2018-04-11T23:52:53.491Z,9.90
2018-04-11T23:55:22.582Z,9.80
2018-04-11T23:57:50.799Z,9.70
